ENTC

Tromsø Airport

Tromsø, Norway
METAR ENTC 162150Z 05007KT 9999 FEW060 15/10 Q1017 RMK WIND 2600FT 19014KT
Observed Flight Rules
Jul-16 @ 21:50 UTC (24 minutes ago) Visual Flight Rules
Wind Visibility Clouds
50° at 7 knots 10,000+ meters
  • Few at 6,000' AGL
Temperatures Readings
Current 15°C / 59°F
Dewpoint 10°C / 50°F
Humidity 72%
Altimeter 30.03" Hg
Pressure 1017 hPa
Elevation 10
METAR ENTC 162150Z 05007KT 9999 FEW060 15/10 Q1017 RMK WIND 2600FT 19014KT
Observed Flight Rules
Jul-16 @ 21:50 UTC
(24 minutes ago)
VFR
Wind Visibility
50° at 7 knots 10,000+ meters
Clouds
  • Few at 6,000' AGL
Temperature Dewpoint
15°C / 59°F 10°C / 50°F
Humidity Altimeter Pressure
72% 30.03" Hg 1017 hPa